sensor_id;sensor_type;location;lat;lon;timestamp;P1;durP1;ratioP1;P2;durP2;ratioP2
22205;SDS011;11272;50.104;8.754;2024-02-14T00:00:05;13.07;;;4.40;;
22205;SDS011;11272;50.104;8.754;2024-02-14T00:02:35;9.33;;;4.60;;
22205;SDS011;11272;50.104;8.754;2024-02-14T00:05:02;9.70;;;4.07;;
22205;SDS011;11272;50.104;8.754;2024-02-14T00:07:31;9.00;;;3.60;;
22205;SDS011;11272;50.104;8.754;2024-02-14T00:09:57;7.67;;;3.30;;
22205;SDS011;11272;50.104;8.754;2024-02-14T00:12:23;4.53;;;2.70;;
22205;SDS011;11272;50.104;8.754;2024-02-14T00:14:50;6.73;;;2.90;;
22205;SDS011;11272;50.104;8.754;2024-02-14T00:17:16;6.07;;;2.63;;
22205;SDS011;11272;50.104;8.754;2024-02-14T00:19:41;5.30;;;1.87;;
22205;SDS011;11272;50.104;8.754;2024-02-14T00:22:10;5.50;;;2.93;;
22205;SDS011;11272;50.104;8.754;2024-02-14T00:24:36;6.43;;;2.33;;
22205;SDS011;11272;50.104;8.754;2024-02-14T00:27:02;3.07;;;2.17;;
22205;SDS011;11272;50.104;8.754;2024-02-14T00:29:28;3.50;;;1.67;;
22205;SDS011;11272;50.104;8.754;2024-02-14T00:31:54;4.30;;;1.90;;
22205;SDS011;11272;50.104;8.754;2024-02-14T00:34:21;4.93;;;2.30;;
22205;SDS011;11272;50.104;8.754;2024-02-14T00:36:46;5.97;;;2.43;;
22205;SDS011;11272;50.104;8.754;2024-02-14T00:39:12;5.40;;;2.27;;
22205;SDS011;11272;50.104;8.754;2024-02-14T00:41:37;8.63;;;2.27;;
22205;SDS011;11272;50.104;8.754;2024-02-14T00:44:03;5.20;;;2.43;;
22205;SDS011;11272;50.104;8.754;2024-02-14T00:46:29;4.90;;;2.97;;
22205;SDS011;11272;50.104;8.754;2024-02-14T00:48:54;6.83;;;2.90;;
22205;SDS011;11272;50.104;8.754;2024-02-14T00:54:07;4.67;;;2.50;;
22205;SDS011;11272;50.104;8.754;2024-02-14T00:59:24;8.87;;;2.43;;
22205;SDS011;11272;50.104;8.754;2024-02-14T01:01:51;4.27;;;2.03;;
22205;SDS011;11272;50.104;8.754;2024-02-14T01:04:22;3.97;;;1.90;;
22205;SDS011;11272;50.104;8.754;2024-02-14T01:06:50;6.00;;;2.07;;
22205;SDS011;11272;50.104;8.754;2024-02-14T01:09:23;4.60;;;2.07;;
22205;SDS011;11272;50.104;8.754;2024-02-14T01:11:49;2.97;;;1.90;;
22205;SDS011;11272;50.104;8.754;2024-02-14T01:25:30;2.23;;;1.70;;
22205;SDS011;11272;50.104;8.754;2024-02-14T01:27:59;4.40;;;1.90;;
22205;SDS011;11272;50.104;8.754;2024-02-14T01:50:00;3.30;;;2.17;;
22205;SDS011;11272;50.104;8.754;2024-02-14T01:52:26;6.93;;;2.60;;
22205;SDS011;11272;50.104;8.754;2024-02-14T01:57:49;9.80;;;2.40;;
22205;SDS011;11272;50.104;8.754;2024-02-14T02:31:27;5.33;;;2.20;;
22205;SDS011;11272;50.104;8.754;2024-02-14T03:10:28;3.70;;;1.97;;
22205;SDS011;11272;50.104;8.754;2024-02-14T03:13:12;4.17;;;1.60;;
22205;SDS011;11272;50.104;8.754;2024-02-14T03:16:10;4.80;;;1.90;;
22205;SDS011;11272;50.104;8.754;2024-02-14T03:18:36;4.53;;;1.97;;
22205;SDS011;11272;50.104;8.754;2024-02-14T03:23:53;4.17;;;2.30;;
22205;SDS011;11272;50.104;8.754;2024-02-14T03:26:21;7.30;;;2.20;;
22205;SDS011;11272;50.104;8.754;2024-02-14T03:28:47;4.60;;;1.70;;
22205;SDS011;11272;50.104;8.754;2024-02-14T03:31:15;5.23;;;2.47;;
22205;SDS011;11272;50.104;8.754;2024-02-14T03:36:29;5.10;;;2.20;;
22205;SDS011;11272;50.104;8.754;2024-02-14T04:08:44;5.80;;;2.60;;
22205;SDS011;11272;50.104;8.754;2024-02-14T04:11:35;4.53;;;2.77;;
22205;SDS011;11272;50.104;8.754;2024-02-14T04:52:09;8.80;;;3.07;;
22205;SDS011;11272;50.104;8.754;2024-02-14T06:40:13;5.77;;;2.57;;
22205;SDS011;11272;50.104;8.754;2024-02-14T06:51:27;4.43;;;2.43;;
22205;SDS011;11272;50.104;8.754;2024-02-14T06:59:47;5.83;;;2.50;;
22205;SDS011;11272;50.104;8.754;2024-02-14T07:04:53;7.87;;;2.43;;
22205;SDS011;11272;50.104;8.754;2024-02-14T07:07:30;6.00;;;3.20;;
22205;SDS011;11272;50.104;8.754;2024-02-14T07:09:55;9.63;;;3.03;;
22205;SDS011;11272;50.104;8.754;2024-02-14T07:12:21;9.30;;;2.97;;
22205;SDS011;11272;50.104;8.754;2024-02-14T07:17:43;8.53;;;3.33;;
22205;SDS011;11272;50.104;8.754;2024-02-14T07:20:08;4.73;;;2.27;;
22205;SDS011;11272;50.104;8.754;2024-02-14T07:22:35;7.43;;;2.97;;
22205;SDS011;11272;50.104;8.754;2024-02-14T07:25:01;8.67;;;2.80;;
22205;SDS011;11272;50.104;8.754;2024-02-14T07:27:30;7.03;;;2.90;;
22205;SDS011;11272;50.104;8.754;2024-02-14T07:29:56;12.30;;;3.53;;
22205;SDS011;11272;50.104;8.754;2024-02-14T07:32:21;7.67;;;3.20;;
22205;SDS011;11272;50.104;8.754;2024-02-14T07:34:47;4.10;;;2.40;;
22205;SDS011;11272;50.104;8.754;2024-02-14T07:37:12;4.27;;;2.27;;
22205;SDS011;11272;50.104;8.754;2024-02-14T07:39:40;5.10;;;2.73;;
22205;SDS011;11272;50.104;8.754;2024-02-14T07:42:05;7.17;;;2.57;;
22205;SDS011;11272;50.104;8.754;2024-02-14T07:44:31;6.13;;;2.80;;
22205;SDS011;11272;50.104;8.754;2024-02-14T07:46:57;7.20;;;2.67;;
22205;SDS011;11272;50.104;8.754;2024-02-14T07:49:23;6.93;;;2.57;;
22205;SDS011;11272;50.104;8.754;2024-02-14T07:51:49;5.50;;;2.70;;
22205;SDS011;11272;50.104;8.754;2024-02-14T07:54:14;4.70;;;2.10;;
22205;SDS011;11272;50.104;8.754;2024-02-14T07:56:40;4.37;;;2.20;;
22205;SDS011;11272;50.104;8.754;2024-02-14T08:01:54;4.10;;;1.83;;
22205;SDS011;11272;50.104;8.754;2024-02-14T08:04:22;2.90;;;2.13;;
22205;SDS011;11272;50.104;8.754;2024-02-14T08:06:47;4.30;;;2.70;;
22205;SDS011;11272;50.104;8.754;2024-02-14T08:09:15;8.17;;;3.03;;
22205;SDS011;11272;50.104;8.754;2024-02-14T08:11:41;4.37;;;2.60;;
22205;SDS011;11272;50.104;8.754;2024-02-14T08:14:06;5.17;;;2.47;;
22205;SDS011;11272;50.104;8.754;2024-02-14T08:16:32;7.57;;;2.27;;
22205;SDS011;11272;50.104;8.754;2024-02-14T08:18:57;8.23;;;2.93;;
22205;SDS011;11272;50.104;8.754;2024-02-14T08:21:26;6.93;;;2.70;;
22205;SDS011;11272;50.104;8.754;2024-02-14T08:23:53;7.30;;;2.60;;
22205;SDS011;11272;50.104;8.754;2024-02-14T08:26:20;4.30;;;2.50;;
22205;SDS011;11272;50.104;8.754;2024-02-14T08:28:48;9.73;;;3.03;;
22205;SDS011;11272;50.104;8.754;2024-02-14T08:34:02;5.97;;;2.30;;
22205;SDS011;11272;50.104;8.754;2024-02-14T08:36:28;3.80;;;2.10;;
22205;SDS011;11272;50.104;8.754;2024-02-14T08:38:54;4.07;;;2.10;;
22205;SDS011;11272;50.104;8.754;2024-02-14T08:41:20;15.13;;;3.03;;
22205;SDS011;11272;50.104;8.754;2024-02-14T08:43:45;5.60;;;2.17;;
22205;SDS011;11272;50.104;8.754;2024-02-14T08:46:11;5.37;;;2.40;;
22205;SDS011;11272;50.104;8.754;2024-02-14T08:48:37;8.50;;;2.53;;
22205;SDS011;11272;50.104;8.754;2024-02-14T08:51:08;5.13;;;2.03;;
22205;SDS011;11272;50.104;8.754;2024-02-14T08:53:35;8.80;;;2.30;;
22205;SDS011;11272;50.104;8.754;2024-02-14T08:56:01;5.63;;;2.60;;
22205;SDS011;11272;50.104;8.754;2024-02-14T08:58:27;4.30;;;1.97;;
22205;SDS011;11272;50.104;8.754;2024-02-14T09:00:52;6.47;;;2.60;;
22205;SDS011;11272;50.104;8.754;2024-02-14T09:03:19;4.17;;;2.43;;
22205;SDS011;11272;50.104;8.754;2024-02-14T09:05:45;3.10;;;2.23;;
22205;SDS011;11272;50.104;8.754;2024-02-14T09:08:12;5.33;;;2.27;;
22205;SDS011;11272;50.104;8.754;2024-02-14T09:10:38;5.80;;;2.20;;
22205;SDS011;11272;50.104;8.754;2024-02-14T09:13:04;4.90;;;1.97;;
22205;SDS011;11272;50.104;8.754;2024-02-14T09:15:29;6.73;;;2.30;;
22205;SDS011;11272;50.104;8.754;2024-02-14T09:18:15;4.23;;;2.70;;
22205;SDS011;11272;50.104;8.754;2024-02-14T09:20:44;4.50;;;1.90;;
22205;SDS011;11272;50.104;8.754;2024-02-14T09:26:13;3.97;;;1.83;;
22205;SDS011;11272;50.104;8.754;2024-02-14T09:28:42;2.60;;;2.10;;
22205;SDS011;11272;50.104;8.754;2024-02-14T09:31:08;4.53;;;2.37;;
22205;SDS011;11272;50.104;8.754;2024-02-14T09:33:36;5.30;;;2.73;;
22205;SDS011;11272;50.104;8.754;2024-02-14T09:36:03;4.83;;;2.30;;
22205;SDS011;11272;50.104;8.754;2024-02-14T09:38:29;2.87;;;1.67;;
22205;SDS011;11272;50.104;8.754;2024-02-14T09:43:47;5.70;;;2.37;;
22205;SDS011;11272;50.104;8.754;2024-02-14T09:46:13;7.40;;;2.60;;
22205;SDS011;11272;50.104;8.754;2024-02-14T09:48:43;5.23;;;2.70;;
22205;SDS011;11272;50.104;8.754;2024-02-14T09:51:10;7.37;;;2.57;;
22205;SDS011;11272;50.104;8.754;2024-02-14T09:53:37;6.70;;;2.97;;
22205;SDS011;11272;50.104;8.754;2024-02-14T09:56:05;4.97;;;2.70;;
22205;SDS011;11272;50.104;8.754;2024-02-14T09:58:33;6.17;;;2.93;;
22205;SDS011;11272;50.104;8.754;2024-02-14T10:01:00;4.83;;;2.80;;
22205;SDS011;11272;50.104;8.754;2024-02-14T10:03:25;8.13;;;2.80;;
22205;SDS011;11272;50.104;8.754;2024-02-14T10:05:54;5.93;;;2.93;;
22205;SDS011;11272;50.104;8.754;2024-02-14T10:08:20;8.33;;;2.43;;
22205;SDS011;11272;50.104;8.754;2024-02-14T10:10:49;4.17;;;2.30;;
22205;SDS011;11272;50.104;8.754;2024-02-14T10:13:15;8.93;;;3.33;;
22205;SDS011;11272;50.104;8.754;2024-02-14T10:15:44;6.43;;;2.90;;
22205;SDS011;11272;50.104;8.754;2024-02-14T10:18:10;4.63;;;2.73;;
22205;SDS011;11272;50.104;8.754;2024-02-14T10:20:36;7.40;;;2.90;;
22205;SDS011;11272;50.104;8.754;2024-02-14T10:23:10;6.77;;;3.07;;
22205;SDS011;11272;50.104;8.754;2024-02-14T10:25:36;5.20;;;2.53;;
22205;SDS011;11272;50.104;8.754;2024-02-14T10:28:05;7.07;;;2.83;;
22205;SDS011;11272;50.104;8.754;2024-02-14T10:30:35;9.00;;;2.70;;
22205;SDS011;11272;50.104;8.754;2024-02-14T10:33:03;5.73;;;2.70;;
22205;SDS011;11272;50.104;8.754;2024-02-14T10:35:30;4.80;;;2.40;;
22205;SDS011;11272;50.104;8.754;2024-02-14T10:38:00;5.83;;;2.70;;
22205;SDS011;11272;50.104;8.754;2024-02-14T10:40:31;7.00;;;2.70;;
22205;SDS011;11272;50.104;8.754;2024-02-14T10:42:58;6.47;;;2.83;;
22205;SDS011;11272;50.104;8.754;2024-02-14T10:45:25;6.07;;;2.67;;
22205;SDS011;11272;50.104;8.754;2024-02-14T10:47:51;5.00;;;2.67;;
22205;SDS011;11272;50.104;8.754;2024-02-14T10:50:19;4.97;;;2.80;;
22205;SDS011;11272;50.104;8.754;2024-02-14T10:52:50;4.40;;;2.50;;
22205;SDS011;11272;50.104;8.754;2024-02-14T10:55:22;5.73;;;2.50;;
22205;SDS011;11272;50.104;8.754;2024-02-14T10:57:53;6.03;;;2.80;;
22205;SDS011;11272;50.104;8.754;2024-02-14T11:00:19;3.70;;;2.17;;
22205;SDS011;11272;50.104;8.754;2024-02-14T11:02:48;5.10;;;2.67;;
22205;SDS011;11272;50.104;8.754;2024-02-14T11:05:15;8.93;;;3.00;;
22205;SDS011;11272;50.104;8.754;2024-02-14T11:07:45;4.43;;;2.50;;
22205;SDS011;11272;50.104;8.754;2024-02-14T11:10:16;20.70;;;2.83;;
22205;SDS011;11272;50.104;8.754;2024-02-14T11:12:43;6.53;;;2.57;;
22205;SDS011;11272;50.104;8.754;2024-02-14T11:15:22;5.17;;;1.97;;
22205;SDS011;11272;50.104;8.754;2024-02-14T11:17:49;4.37;;;1.77;;
22205;SDS011;11272;50.104;8.754;2024-02-14T11:20:20;6.50;;;2.10;;
22205;SDS011;11272;50.104;8.754;2024-02-14T11:28:12;4.40;;;2.30;;
22205;SDS011;11272;50.104;8.754;2024-02-14T11:30:42;2.80;;;2.00;;
22205;SDS011;11272;50.104;8.754;2024-02-14T11:33:15;3.37;;;1.80;;
22205;SDS011;11272;50.104;8.754;2024-02-14T11:35:46;4.50;;;2.57;;
22205;SDS011;11272;50.104;8.754;2024-02-14T11:38:14;3.30;;;1.70;;
22205;SDS011;11272;50.104;8.754;2024-02-14T11:40:40;2.53;;;1.60;;
22205;SDS011;11272;50.104;8.754;2024-02-14T11:43:18;4.27;;;1.80;;
22205;SDS011;11272;50.104;8.754;2024-02-14T11:45:46;4.60;;;1.50;;
22205;SDS011;11272;50.104;8.754;2024-02-14T11:51:05;2.20;;;1.40;;
22205;SDS011;11272;50.104;8.754;2024-02-14T11:56:37;2.73;;;1.70;;
22205;SDS011;11272;50.104;8.754;2024-02-14T11:59:17;2.60;;;1.70;;
22205;SDS011;11272;50.104;8.754;2024-02-14T12:10:32;3.30;;;1.80;;
22205;SDS011;11272;50.104;8.754;2024-02-14T12:15:49;3.67;;;1.90;;
22205;SDS011;11272;50.104;8.754;2024-02-14T12:18:40;1.97;;;1.70;;
22205;SDS011;11272;50.104;8.754;2024-02-14T12:21:06;3.23;;;1.77;;
22205;SDS011;11272;50.104;8.754;2024-02-14T12:23:35;3.13;;;1.90;;
22205;SDS011;11272;50.104;8.754;2024-02-14T12:26:04;2.37;;;1.80;;
22205;SDS011;11272;50.104;8.754;2024-02-14T12:28:33;4.30;;;2.10;;
22205;SDS011;11272;50.104;8.754;2024-02-14T13:57:20;5.07;;;1.43;;
22205;SDS011;11272;50.104;8.754;2024-02-14T14:07:53;4.23;;;2.07;;
22205;SDS011;11272;50.104;8.754;2024-02-14T14:13:06;5.57;;;2.60;;
22205;SDS011;11272;50.104;8.754;2024-02-14T14:15:33;4.87;;;2.47;;
22205;SDS011;11272;50.104;8.754;2024-02-14T14:26:26;4.87;;;2.30;;
22205;SDS011;11272;50.104;8.754;2024-02-14T14:28:51;5.33;;;2.83;;
22205;SDS011;11272;50.104;8.754;2024-02-14T14:34:08;4.00;;;2.40;;
22205;SDS011;11272;50.104;8.754;2024-02-14T14:36:34;3.70;;;2.60;;
22205;SDS011;11272;50.104;8.754;2024-02-14T14:42:14;5.10;;;2.40;;
22205;SDS011;11272;50.104;8.754;2024-02-14T14:55:56;5.43;;;2.70;;
22205;SDS011;11272;50.104;8.754;2024-02-14T15:01:10;5.33;;;2.70;;
22205;SDS011;11272;50.104;8.754;2024-02-14T15:08:54;7.53;;;2.60;;
22205;SDS011;11272;50.104;8.754;2024-02-14T15:11:19;6.00;;;3.00;;
22205;SDS011;11272;50.104;8.754;2024-02-14T15:13:46;6.37;;;2.73;;
22205;SDS011;11272;50.104;8.754;2024-02-14T15:16:12;6.40;;;2.80;;
22205;SDS011;11272;50.104;8.754;2024-02-14T15:18:40;7.80;;;2.80;;
22205;SDS011;11272;50.104;8.754;2024-02-14T15:21:08;5.00;;;2.70;;
22205;SDS011;11272;50.104;8.754;2024-02-14T15:23:38;5.17;;;2.20;;
22205;SDS011;11272;50.104;8.754;2024-02-14T15:26:03;6.57;;;2.20;;
22205;SDS011;11272;50.104;8.754;2024-02-14T15:28:35;3.90;;;2.17;;
22205;SDS011;11272;50.104;8.754;2024-02-14T15:31:06;4.70;;;2.23;;
22205;SDS011;11272;50.104;8.754;2024-02-14T15:33:52;3.77;;;1.77;;
22205;SDS011;11272;50.104;8.754;2024-02-14T15:36:20;4.07;;;1.90;;
22205;SDS011;11272;50.104;8.754;2024-02-14T15:38:47;3.60;;;2.00;;
22205;SDS011;11272;50.104;8.754;2024-02-14T15:44:05;2.30;;;1.70;;
22205;SDS011;11272;50.104;8.754;2024-02-14T15:46:31;3.00;;;1.90;;
22205;SDS011;11272;50.104;8.754;2024-02-14T15:55:45;3.13;;;2.20;;
22205;SDS011;11272;50.104;8.754;2024-02-14T15:58:11;2.57;;;2.00;;
22205;SDS011;11272;50.104;8.754;2024-02-14T16:15:47;5.03;;;2.40;;
22205;SDS011;11272;50.104;8.754;2024-02-14T16:18:12;2.70;;;2.27;;
22205;SDS011;11272;50.104;8.754;2024-02-14T16:23:12;5.50;;;2.60;;
22205;SDS011;11272;50.104;8.754;2024-02-14T16:25:38;4.93;;;2.90;;
22205;SDS011;11272;50.104;8.754;2024-02-14T16:28:05;7.23;;;1.93;;
22205;SDS011;11272;50.104;8.754;2024-02-14T16:30:32;3.17;;;2.00;;
22205;SDS011;11272;50.104;8.754;2024-02-14T16:32:58;5.40;;;3.03;;
22205;SDS011;11272;50.104;8.754;2024-02-14T16:35:24;4.83;;;2.70;;
22205;SDS011;11272;50.104;8.754;2024-02-14T16:37:49;4.67;;;2.70;;
22205;SDS011;11272;50.104;8.754;2024-02-14T16:40:15;6.43;;;2.60;;
22205;SDS011;11272;50.104;8.754;2024-02-14T16:42:41;8.10;;;3.10;;
22205;SDS011;11272;50.104;8.754;2024-02-14T16:45:06;4.93;;;2.80;;
22205;SDS011;11272;50.104;8.754;2024-02-14T16:47:32;4.00;;;2.43;;
22205;SDS011;11272;50.104;8.754;2024-02-14T16:52:55;5.20;;;3.00;;
22205;SDS011;11272;50.104;8.754;2024-02-14T16:58:19;7.77;;;3.00;;
22205;SDS011;11272;50.104;8.754;2024-02-14T17:03:43;3.87;;;2.90;;
22205;SDS011;11272;50.104;8.754;2024-02-14T17:06:09;4.13;;;2.97;;
22205;SDS011;11272;50.104;8.754;2024-02-14T17:08:35;6.13;;;3.00;;
22205;SDS011;11272;50.104;8.754;2024-02-14T17:11:01;5.03;;;3.30;;
22205;SDS011;11272;50.104;8.754;2024-02-14T17:22:36;5.23;;;3.27;;
22205;SDS011;11272;50.104;8.754;2024-02-14T17:25:04;6.80;;;3.50;;
22205;SDS011;11272;50.104;8.754;2024-02-14T17:27:33;5.87;;;3.10;;
22205;SDS011;11272;50.104;8.754;2024-02-14T17:32:44;5.50;;;3.60;;
22205;SDS011;11272;50.104;8.754;2024-02-14T17:35:13;4.83;;;3.23;;
22205;SDS011;11272;50.104;8.754;2024-02-14T17:37:39;5.73;;;3.53;;
22205;SDS011;11272;50.104;8.754;2024-02-14T17:40:07;5.93;;;3.40;;
22205;SDS011;11272;50.104;8.754;2024-02-14T17:45:56;6.27;;;3.57;;
22205;SDS011;11272;50.104;8.754;2024-02-14T17:48:21;4.20;;;3.20;;
22205;SDS011;11272;50.104;8.754;2024-02-14T17:50:48;6.60;;;3.33;;
22205;SDS011;11272;50.104;8.754;2024-02-14T17:53:14;5.33;;;3.93;;
22205;SDS011;11272;50.104;8.754;2024-02-14T17:55:40;4.60;;;2.80;;
22205;SDS011;11272;50.104;8.754;2024-02-14T17:58:06;4.87;;;3.37;;
22205;SDS011;11272;50.104;8.754;2024-02-14T18:00:32;5.43;;;3.20;;
22205;SDS011;11272;50.104;8.754;2024-02-14T18:06:01;5.13;;;3.20;;
22205;SDS011;11272;50.104;8.754;2024-02-14T18:11:03;5.43;;;3.40;;
22205;SDS011;11272;50.104;8.754;2024-02-14T18:13:29;5.27;;;3.60;;
22205;SDS011;11272;50.104;8.754;2024-02-14T18:15:55;6.27;;;3.43;;
22205;SDS011;11272;50.104;8.754;2024-02-14T18:18:21;8.20;;;3.03;;
22205;SDS011;11272;50.104;8.754;2024-02-14T18:20:47;4.23;;;3.00;;
22205;SDS011;11272;50.104;8.754;2024-02-14T18:26:03;4.93;;;3.47;;
22205;SDS011;11272;50.104;8.754;2024-02-14T18:28:30;5.67;;;3.10;;
22205;SDS011;11272;50.104;8.754;2024-02-14T18:37:00;3.93;;;2.60;;
22205;SDS011;11272;50.104;8.754;2024-02-14T18:48:02;8.70;;;3.03;;
22205;SDS011;11272;50.104;8.754;2024-02-14T18:50:29;5.53;;;3.17;;
22205;SDS011;11272;50.104;8.754;2024-02-14T18:52:55;4.63;;;3.20;;
22205;SDS011;11272;50.104;8.754;2024-02-14T18:55:20;4.60;;;3.57;;
22205;SDS011;11272;50.104;8.754;2024-02-14T18:57:48;8.50;;;3.70;;
22205;SDS011;11272;50.104;8.754;2024-02-14T19:00:14;8.03;;;3.97;;
22205;SDS011;11272;50.104;8.754;2024-02-14T19:02:40;7.77;;;4.20;;
22205;SDS011;11272;50.104;8.754;2024-02-14T19:05:07;7.47;;;3.90;;
22205;SDS011;11272;50.104;8.754;2024-02-14T19:07:37;5.73;;;4.03;;
22205;SDS011;11272;50.104;8.754;2024-02-14T19:10:04;5.77;;;3.27;;
22205;SDS011;11272;50.104;8.754;2024-02-14T19:12:30;8.67;;;4.57;;
22205;SDS011;11272;50.104;8.754;2024-02-14T19:14:59;4.00;;;3.50;;
22205;SDS011;11272;50.104;8.754;2024-02-14T19:17:32;7.43;;;4.37;;
22205;SDS011;11272;50.104;8.754;2024-02-14T19:19:59;5.57;;;4.20;;
22205;SDS011;11272;50.104;8.754;2024-02-14T19:22:30;5.23;;;3.50;;
22205;SDS011;11272;50.104;8.754;2024-02-14T19:27:56;8.80;;;4.33;;
22205;SDS011;11272;50.104;8.754;2024-02-14T19:30:22;6.97;;;4.60;;
22205;SDS011;11272;50.104;8.754;2024-02-14T19:32:48;5.90;;;4.27;;
22205;SDS011;11272;50.104;8.754;2024-02-14T19:43:37;7.60;;;5.20;;
22205;SDS011;11272;50.104;8.754;2024-02-14T19:46:02;9.27;;;4.70;;
22205;SDS011;11272;50.104;8.754;2024-02-14T19:48:28;7.27;;;4.83;;
22205;SDS011;11272;50.104;8.754;2024-02-14T19:50:56;8.93;;;5.17;;
22205;SDS011;11272;50.104;8.754;2024-02-14T19:53:22;8.83;;;5.20;;
22205;SDS011;11272;50.104;8.754;2024-02-14T19:55:50;9.80;;;4.97;;
22205;SDS011;11272;50.104;8.754;2024-02-14T19:58:16;7.20;;;4.57;;
22205;SDS011;11272;50.104;8.754;2024-02-14T20:03:17;7.50;;;5.43;;
22205;SDS011;11272;50.104;8.754;2024-02-14T20:08:48;6.40;;;5.00;;
22205;SDS011;11272;50.104;8.754;2024-02-14T20:11:14;8.40;;;4.67;;
22205;SDS011;11272;50.104;8.754;2024-02-14T20:13:40;8.70;;;5.30;;
22205;SDS011;11272;50.104;8.754;2024-02-14T20:16:06;10.23;;;5.17;;
22205;SDS011;11272;50.104;8.754;2024-02-14T20:18:34;7.67;;;4.93;;
22205;SDS011;11272;50.104;8.754;2024-02-14T20:21:02;7.30;;;4.90;;
22205;SDS011;11272;50.104;8.754;2024-02-14T20:23:28;10.63;;;6.20;;
22205;SDS011;11272;50.104;8.754;2024-02-14T20:25:54;10.87;;;5.50;;
22205;SDS011;11272;50.104;8.754;2024-02-14T20:28:20;7.70;;;5.67;;
22205;SDS011;11272;50.104;8.754;2024-02-14T20:30:48;7.93;;;5.47;;
22205;SDS011;11272;50.104;8.754;2024-02-14T20:33:17;10.37;;;5.47;;
22205;SDS011;11272;50.104;8.754;2024-02-14T20:35:43;7.73;;;4.97;;
22205;SDS011;11272;50.104;8.754;2024-02-14T20:38:08;9.17;;;5.40;;
22205;SDS011;11272;50.104;8.754;2024-02-14T20:40:38;7.83;;;5.23;;
22205;SDS011;11272;50.104;8.754;2024-02-14T20:43:06;8.97;;;5.30;;
22205;SDS011;11272;50.104;8.754;2024-02-14T20:45:32;8.57;;;5.40;;
22205;SDS011;11272;50.104;8.754;2024-02-14T20:48:03;9.40;;;5.70;;
22205;SDS011;11272;50.104;8.754;2024-02-14T20:50:29;9.93;;;5.47;;
22205;SDS011;11272;50.104;8.754;2024-02-14T20:52:55;10.50;;;7.27;;
22205;SDS011;11272;50.104;8.754;2024-02-14T20:55:21;8.53;;;5.70;;
22205;SDS011;11272;50.104;8.754;2024-02-14T20:57:47;10.13;;;6.10;;
22205;SDS011;11272;50.104;8.754;2024-02-14T21:00:17;11.33;;;5.67;;
22205;SDS011;11272;50.104;8.754;2024-02-14T21:02:43;9.73;;;4.70;;
22205;SDS011;11272;50.104;8.754;2024-02-14T21:05:09;12.93;;;6.90;;
22205;SDS011;11272;50.104;8.754;2024-02-14T21:07:34;13.67;;;6.37;;
22205;SDS011;11272;50.104;8.754;2024-02-14T21:10:00;11.20;;;6.67;;
22205;SDS011;11272;50.104;8.754;2024-02-14T21:12:26;9.63;;;6.43;;
22205;SDS011;11272;50.104;8.754;2024-02-14T21:14:51;12.40;;;6.67;;
22205;SDS011;11272;50.104;8.754;2024-02-14T21:17:19;11.17;;;6.43;;
22205;SDS011;11272;50.104;8.754;2024-02-14T21:19:47;10.17;;;6.53;;
22205;SDS011;11272;50.104;8.754;2024-02-14T21:22:13;12.97;;;6.73;;
22205;SDS011;11272;50.104;8.754;2024-02-14T21:24:38;9.83;;;6.60;;
22205;SDS011;11272;50.104;8.754;2024-02-14T21:27:06;8.67;;;5.10;;
22205;SDS011;11272;50.104;8.754;2024-02-14T21:29:33;16.20;;;7.30;;
22205;SDS011;11272;50.104;8.754;2024-02-14T21:31:58;13.67;;;7.60;;
22205;SDS011;11272;50.104;8.754;2024-02-14T21:34:24;14.37;;;7.63;;
22205;SDS011;11272;50.104;8.754;2024-02-14T21:36:51;15.00;;;7.87;;
22205;SDS011;11272;50.104;8.754;2024-02-14T21:39:17;13.30;;;6.90;;
22205;SDS011;11272;50.104;8.754;2024-02-14T21:41:45;11.83;;;7.53;;
22205;SDS011;11272;50.104;8.754;2024-02-14T21:44:11;14.83;;;7.83;;
22205;SDS011;11272;50.104;8.754;2024-02-14T21:46:38;15.47;;;7.83;;
22205;SDS011;11272;50.104;8.754;2024-02-14T21:49:05;15.30;;;8.27;;
22205;SDS011;11272;50.104;8.754;2024-02-14T21:51:33;15.00;;;7.97;;
22205;SDS011;11272;50.104;8.754;2024-02-14T21:54:03;18.13;;;8.87;;
22205;SDS011;11272;50.104;8.754;2024-02-14T21:56:28;16.63;;;8.87;;
22205;SDS011;11272;50.104;8.754;2024-02-14T21:58:54;16.03;;;8.33;;
22205;SDS011;11272;50.104;8.754;2024-02-14T22:01:21;15.23;;;8.10;;
22205;SDS011;11272;50.104;8.754;2024-02-14T22:03:47;14.03;;;8.00;;
22205;SDS011;11272;50.104;8.754;2024-02-14T22:06:13;14.13;;;8.50;;
22205;SDS011;11272;50.104;8.754;2024-02-14T22:08:39;17.10;;;10.10;;
22205;SDS011;11272;50.104;8.754;2024-02-14T22:11:05;19.20;;;9.57;;
22205;SDS011;11272;50.104;8.754;2024-02-14T22:13:34;18.50;;;8.40;;
22205;SDS011;11272;50.104;8.754;2024-02-14T22:16:00;21.50;;;9.13;;
22205;SDS011;11272;50.104;8.754;2024-02-14T22:18:26;18.67;;;9.30;;
22205;SDS011;11272;50.104;8.754;2024-02-14T22:20:54;15.17;;;9.30;;
22205;SDS011;11272;50.104;8.754;2024-02-14T22:23:23;20.60;;;9.63;;
22205;SDS011;11272;50.104;8.754;2024-02-14T22:25:52;17.80;;;9.10;;
22205;SDS011;11272;50.104;8.754;2024-02-14T22:28:20;25.70;;;9.90;;
22205;SDS011;11272;50.104;8.754;2024-02-14T22:30:48;20.27;;;9.30;;
22205;SDS011;11272;50.104;8.754;2024-02-14T22:33:17;14.67;;;8.83;;
22205;SDS011;11272;50.104;8.754;2024-02-14T22:35:44;20.23;;;9.33;;
22205;SDS011;11272;50.104;8.754;2024-02-14T22:38:10;16.60;;;9.23;;
22205;SDS011;11272;50.104;8.754;2024-02-14T22:40:35;21.23;;;10.13;;
22205;SDS011;11272;50.104;8.754;2024-02-14T22:43:02;17.30;;;8.87;;
22205;SDS011;11272;50.104;8.754;2024-02-14T22:45:30;22.33;;;9.83;;
22205;SDS011;11272;50.104;8.754;2024-02-14T22:47:56;19.10;;;9.17;;
22205;SDS011;11272;50.104;8.754;2024-02-14T22:50:21;20.13;;;9.87;;
22205;SDS011;11272;50.104;8.754;2024-02-14T22:52:47;18.03;;;8.93;;
22205;SDS011;11272;50.104;8.754;2024-02-14T22:55:13;21.80;;;10.43;;
22205;SDS011;11272;50.104;8.754;2024-02-14T22:57:38;18.97;;;9.93;;
22205;SDS011;11272;50.104;8.754;2024-02-14T23:00:04;33.07;;;13.57;;
22205;SDS011;11272;50.104;8.754;2024-02-14T23:02:33;15.77;;;8.73;;
22205;SDS011;11272;50.104;8.754;2024-02-14T23:04:58;17.73;;;9.40;;
22205;SDS011;11272;50.104;8.754;2024-02-14T23:07:24;18.70;;;9.70;;
22205;SDS011;11272;50.104;8.754;2024-02-14T23:09:50;21.10;;;8.97;;
22205;SDS011;11272;50.104;8.754;2024-02-14T23:12:15;21.03;;;9.50;;
22205;SDS011;11272;50.104;8.754;2024-02-14T23:14:44;18.83;;;9.10;;
22205;SDS011;11272;50.104;8.754;2024-02-14T23:17:11;18.83;;;9.20;;
22205;SDS011;11272;50.104;8.754;2024-02-14T23:19:38;17.07;;;8.50;;
22205;SDS011;11272;50.104;8.754;2024-02-14T23:22:04;14.77;;;6.77;;
22205;SDS011;11272;50.104;8.754;2024-02-14T23:24:30;16.50;;;8.80;;
22205;SDS011;11272;50.104;8.754;2024-02-14T23:26:56;20.33;;;9.13;;
22205;SDS011;11272;50.104;8.754;2024-02-14T23:29:22;19.63;;;8.87;;
22205;SDS011;11272;50.104;8.754;2024-02-14T23:31:48;18.93;;;9.50;;
22205;SDS011;11272;50.104;8.754;2024-02-14T23:34:13;16.83;;;8.20;;
22205;SDS011;11272;50.104;8.754;2024-02-14T23:36:40;16.77;;;8.60;;
22205;SDS011;11272;50.104;8.754;2024-02-14T23:39:06;19.17;;;8.77;;
22205;SDS011;11272;50.104;8.754;2024-02-14T23:41:32;22.53;;;9.73;;
22205;SDS011;11272;50.104;8.754;2024-02-14T23:43:57;17.00;;;8.50;;
22205;SDS011;11272;50.104;8.754;2024-02-14T23:46:23;19.33;;;9.20;;
22205;SDS011;11272;50.104;8.754;2024-02-14T23:48:49;19.10;;;8.80;;
22205;SDS011;11272;50.104;8.754;2024-02-14T23:51:14;16.40;;;8.43;;
22205;SDS011;11272;50.104;8.754;2024-02-14T23:53:45;22.97;;;10.47;;
22205;SDS011;11272;50.104;8.754;2024-02-14T23:56:11;20.40;;;9.60;;
22205;SDS011;11272;50.104;8.754;2024-02-14T23:58:37;22.23;;;8.83;;
